Time;durP1;ratioP1;P1;durP2;ratioP2;P2;SDS_P1;SDS_P2;PMS_P1;PMS_P2;Temp;Humidity;BMP_temperature;BMP_pressure;BME280_temperature;BME280_humidity;BME280_pressure;Samples;Min_cycle;Max_cycle;Signal;HPM_P1;HPM_P2
2023/11/23 00:01:42;;;;;;;1.08;1.08;;;;;;;-2.24;92.85;99724.28;4991569;28;20387;-79
2023/11/23 00:04:07;;;;;;;1.20;1.20;;;;;;;-2.45;92.43;99725.75;4975887;28;20033;-79
2023/11/23 00:06:33;;;;;;;1.10;1.10;;;;;;;-2.41;92.89;99735.75;4988734;28;20432;-78
2023/11/23 00:08:58;;;;;;;1.10;1.10;;;;;;;-2.33;93.35;99740.94;5001818;28;20022;-79
2023/11/23 00:11:25;;;;;;;1.10;1.10;;;;;;;-2.04;92.97;99739.22;4997702;28;20034;-78
2023/11/23 00:13:51;;;;;;;1.10;1.10;;;;;;;-2.05;92.30;99727.84;4993753;28;20030;-79
2023/11/23 00:16:17;;;;;;;1.20;1.20;;;;;;;-1.92;92.10;99715.13;4995235;28;20030;-78
2023/11/23 00:18:43;;;;;;;1.10;1.10;;;;;;;-2.13;92.13;99702.69;4994477;28;20048;-78
2023/11/23 00:21:09;;;;;;;1.10;1.10;;;;;;;-2.16;92.86;99711.13;4990213;28;20029;-78
2023/11/23 00:23:34;;;;;;;1.10;1.10;;;;;;;-2.10;92.61;99708.22;4994431;28;20038;-78
2023/11/23 00:26:03;;;;;;;1.00;1.00;;;;;;;-2.28;92.74;99699.56;4993262;28;20045;-78
2023/11/23 00:28:28;;;;;;;1.20;1.20;;;;;;;-2.14;92.63;99712.22;4988251;28;20034;-77
2023/11/23 00:30:54;;;;;;;1.10;1.10;;;;;;;-2.28;92.75;99701.25;4994983;28;20046;-77
2023/11/23 00:33:20;;;;;;;1.10;1.10;;;;;;;-2.19;92.77;99704.72;4996394;28;20030;-78
2023/11/23 00:35:45;;;;;;;1.13;1.13;;;;;;;-2.08;92.80;99698.81;4974289;28;20029;-78
2023/11/23 00:38:16;;;;;;;1.10;1.10;;;;;;;-2.01;92.43;99702.91;4994372;28;20669;-78
2023/11/23 00:40:41;;;;;;;1.10;1.10;;;;;;;-1.89;92.70;99697.13;4989138;28;20030;-78
2023/11/23 00:43:10;;;;;;;1.10;1.10;;;;;;;-1.97;92.26;99698.09;4998948;28;20022;-77
2023/11/23 00:45:40;;;;;;;1.02;1.02;;;;;;;-1.61;92.48;99707.53;4991554;28;20052;-77
2023/11/23 00:48:05;;;;;;;1.10;1.10;;;;;;;-1.68;92.25;99702.50;4997830;28;20034;-79
2023/11/23 00:50:32;;;;;;;1.10;1.10;;;;;;;-1.49;92.90;99698.16;5006887;28;20030;-77
2023/11/23 00:52:59;;;;;;;1.10;1.10;;;;;;;-1.60;92.28;99685.81;4974092;28;20038;-77
2023/11/23 00:55:24;;;;;;;1.10;1.10;;;;;;;-1.37;92.37;99688.81;4993565;28;20218;-79
2023/11/23 00:57:50;;;;;;;1.10;1.10;;;;;;;-1.38;92.27;99686.06;4992322;28;20034;-77
2023/11/23 01:00:16;;;;;;;1.10;1.10;;;;;;;-1.38;92.13;99692.22;4995400;28;20124;-77
2023/11/23 01:02:43;;;;;;;1.10;1.10;;;;;;;-1.36;91.83;99695.88;4981108;28;20383;-77
2023/11/23 01:05:11;;;;;;;1.10;1.10;;;;;;;-1.38;91.80;99691.31;4970879;28;20284;-77
2023/11/23 01:07:38;;;;;;;1.10;1.10;;;;;;;-1.37;91.38;99694.06;4994549;28;20033;-77
2023/11/23 01:10:05;;;;;;;1.10;1.10;;;;;;;-1.35;91.45;99697.72;4995162;28;20480;-77
2023/11/23 01:12:31;;;;;;;;;;;;;;;-1.48;91.73;99684.31;4994075;28;20054;-77
2023/11/23 01:14:57;;;;;;;1.20;1.20;;;;;;;-1.34;91.75;99685.59;4991940;28;19921;-78
2023/11/23 01:17:23;;;;;;;1.10;1.10;;;;;;;-1.23;91.06;99704.88;4995824;28;21977;-78
2023/11/23 01:19:49;;;;;;;1.10;1.10;;;;;;;-1.36;91.65;99698.50;4993505;28;20022;-78
2023/11/23 01:22:15;;;;;;;1.00;1.00;;;;;;;-1.24;91.20;99710.88;4992446;28;20052;-78
2023/11/23 01:24:40;;;;;;;1.10;1.10;;;;;;;-1.35;91.70;99712.50;4992004;28;20128;-78
2023/11/23 01:27:05;;;;;;;1.00;1.00;;;;;;;-1.47;91.47;99706.19;4990820;28;20064;-77
2023/11/23 01:29:31;;;;;;;1.10;1.10;;;;;;;-1.52;91.90;99710.06;4991613;28;20093;-78
2023/11/23 01:31:57;;;;;;;1.00;1.00;;;;;;;-1.29;91.53;99700.00;4989848;28;20699;-78
2023/11/23 01:34:23;;;;;;;1.20;1.20;;;;;;;-1.37;91.59;99696.69;4993823;28;20036;-77
2023/11/23 01:36:49;;;;;;;1.10;1.10;;;;;;;-1.58;91.03;99686.88;4994007;28;20030;-77
2023/11/23 01:39:15;;;;;;;1.00;1.00;;;;;;;-1.62;91.89;99701.38;4973710;28;20061;-78
2023/11/23 01:41:41;;;;;;;1.10;1.10;;;;;;;-1.56;91.79;99695.78;4993429;28;20034;-78
2023/11/23 01:44:06;;;;;;;1.10;1.10;;;;;;;-1.59;91.41;99699.03;4995060;28;20631;-77
2023/11/23 01:46:32;;;;;;;1.10;1.10;;;;;;;-1.48;91.95;99689.56;4991967;28;20033;-78
2023/11/23 01:49:00;;;;;;;1.10;1.10;;;;;;;-1.68;91.80;99677.25;4992237;28;20029;-78
2023/11/23 01:51:26;;;;;;;1.10;1.10;;;;;;;-1.71;91.86;99678.69;4989400;28;20030;-79
2023/11/23 01:53:53;;;;;;;1.10;1.10;;;;;;;-1.70;92.39;99680.50;4991735;28;20041;-78
2023/11/23 01:56:20;;;;;;;1.03;1.03;;;;;;;-1.79;92.36;99669.22;4994374;28;20036;-77
2023/11/23 01:58:46;;;;;;;;;;;;;;;-1.98;92.18;99671.81;4994952;28;20538;-78
2023/11/23 02:01:12;;;;;;;1.00;1.00;;;;;;;-1.96;92.23;99655.50;4996519;28;20043;-78
2023/11/23 02:03:38;;;;;;;1.10;1.10;;;;;;;-2.07;92.66;99653.56;4993220;28;20038;-76
2023/11/23 02:06:04;;;;;;;1.20;1.20;;;;;;;-2.10;92.42;99653.31;4993767;28;20042;-78
2023/11/23 02:08:29;;;;;;;1.10;1.10;;;;;;;-2.19;92.89;99649.84;4992189;28;20022;-78
2023/11/23 02:10:55;;;;;;;1.10;1.10;;;;;;;-2.23;93.38;99651.25;4987550;28;20036;-78
2023/11/23 02:13:21;;;;;;;1.10;1.10;;;;;;;-2.26;93.13;99648.31;4989192;28;20027;-78
2023/11/23 02:15:47;;;;;;;1.10;1.10;;;;;;;-2.29;93.28;99641.91;5008166;28;20384;-78
2023/11/23 02:18:13;;;;;;;1.10;1.10;;;;;;;-2.34;92.88;99645.03;4994400;28;20017;-78
2023/11/23 02:20:42;;;;;;;1.20;1.20;;;;;;;-2.26;92.63;99647.41;4991061;28;20108;-78
2023/11/23 02:23:07;;;;;;;1.20;1.20;;;;;;;-2.41;92.75;99650.44;4992050;28;20033;-76
2023/11/23 02:25:34;;;;;;;1.10;1.10;;;;;;;-2.28;93.71;99638.53;4973550;28;20030;-79
2023/11/23 02:27:59;;;;;;;1.20;1.20;;;;;;;-2.42;93.50;99648.59;4977247;28;20034;-78
2023/11/23 02:30:25;;;;;;;1.10;1.10;;;;;;;-2.44;93.60;99642.31;4976204;28;20389;-77
2023/11/23 02:32:51;;;;;;;1.10;1.10;;;;;;;-2.61;93.26;99637.19;4993789;28;20054;-77
2023/11/23 02:35:20;;;;;;;1.20;1.20;;;;;;;-2.32;93.55;99643.44;4991403;28;20121;-77
2023/11/23 02:37:46;;;;;;;1.10;1.10;;;;;;;-1.97;93.36;99637.94;4994653;28;20030;-77
2023/11/23 02:40:11;;;;;;;1.10;1.10;;;;;;;-1.78;93.37;99640.56;4998010;28;20112;-77
2023/11/23 02:42:38;;;;;;;1.10;1.10;;;;;;;-1.73;93.56;99638.38;4987563;28;20033;-77
2023/11/23 02:45:04;;;;;;;;;;;;;;;-1.63;93.46;99636.75;4987416;28;20439;-77
2023/11/23 02:47:30;;;;;;;1.10;1.10;;;;;;;-1.47;93.31;99643.38;4974857;28;19931;-77
2023/11/23 02:49:55;;;;;;;1.10;1.10;;;;;;;-1.30;92.56;99649.31;4998292;28;20157;-77
2023/11/23 02:52:20;;;;;;;1.00;1.00;;;;;;;-1.26;92.57;99647.00;4993174;28;20038;-77
2023/11/23 02:54:46;;;;;;;1.10;1.10;;;;;;;-1.27;92.18;99647.78;4992471;28;20123;-77
2023/11/23 02:57:11;;;;;;;1.10;1.10;;;;;;;-1.33;92.28;99643.81;4991630;28;20026;-78
2023/11/23 02:59:37;;;;;;;1.10;1.10;;;;;;;-1.47;92.19;99659.06;4994766;28;20823;-77
2023/11/23 03:02:03;;;;;;;1.10;1.10;;;;;;;-1.59;92.09;99657.16;4980335;28;20042;-76
2023/11/23 03:04:28;;;;;;;1.10;1.10;;;;;;;-1.55;92.54;99664.50;4976142;28;20030;-76
2023/11/23 03:06:53;;;;;;;1.10;1.10;;;;;;;-1.56;92.19;99662.69;4992938;28;20116;-77
2023/11/23 03:09:19;;;;;;;1.10;1.10;;;;;;;-1.55;91.89;99660.97;4988180;28;20034;-77
2023/11/23 03:11:45;;;;;;;1.10;1.10;;;;;;;-1.71;91.94;99652.53;4993220;28;20033;-77
2023/11/23 03:14:11;;;;;;;1.10;1.10;;;;;;;-1.85;91.88;99656.50;4999710;28;20113;-77
2023/11/23 03:16:37;;;;;;;1.10;1.10;;;;;;;-1.82;92.04;99659.38;5008363;28;20032;-77
2023/11/23 03:19:03;;;;;;;1.10;1.10;;;;;;;-2.13;92.04;99658.25;4992833;28;20022;-77
2023/11/23 03:21:28;;;;;;;1.10;1.10;;;;;;;-2.27;93.05;99650.81;4992192;28;20029;-76
2023/11/23 03:23:54;;;;;;;1.10;1.10;;;;;;;-2.39;93.46;99645.38;4991629;28;20081;-77
2023/11/23 03:26:20;;;;;;;1.02;1.02;;;;;;;-2.39;93.75;99650.59;4991787;28;20030;-77
2023/11/23 03:28:47;;;;;;;1.17;1.17;;;;;;;-2.45;93.90;99650.91;4992531;28;20022;-77
2023/11/23 03:31:12;;;;;;;1.10;1.10;;;;;;;-2.44;94.14;99647.53;4993236;28;20032;-76
2023/11/23 03:33:41;;;;;;;1.10;1.10;;;;;;;-2.50;93.42;99656.47;4993323;28;20026;-77
2023/11/23 03:36:08;;;;;;;1.20;1.20;;;;;;;-2.51;93.98;99649.44;4991920;28;20153;-77
2023/11/23 03:38:33;;;;;;;1.10;1.10;;;;;;;-2.48;94.38;99654.94;4991896;28;20161;-76
2023/11/23 03:41:00;;;;;;;1.10;1.10;;;;;;;-2.57;94.15;99655.00;4989956;28;20034;-76
2023/11/23 03:43:26;;;;;;;1.00;1.00;;;;;;;-2.48;93.97;99658.47;4991344;28;20053;-77
2023/11/23 03:45:51;;;;;;;1.10;1.10;;;;;;;-2.48;93.67;99655.88;4992329;28;20163;-77
2023/11/23 03:48:18;;;;;;;1.10;1.10;;;;;;;-2.44;93.75;99664.94;4994309;28;20578;-77
2023/11/23 03:50:43;;;;;;;1.00;1.00;;;;;;;-2.58;93.96;99659.31;4989594;28;20034;-76
2023/11/23 03:53:09;;;;;;;1.10;1.10;;;;;;;-2.67;94.25;99658.44;4994046;28;20030;-77
2023/11/23 03:55:35;;;;;;;1.20;1.20;;;;;;;-2.83;94.08;99652.50;4989489;28;20800;-77
2023/11/23 03:58:02;;;;;;;1.10;1.10;;;;;;;-3.00;93.66;99650.91;4993689;28;20132;-78
2023/11/23 04:00:28;;;;;;;;;;;;;;;-3.05;94.68;99651.22;4993034;28;20097;-77
2023/11/23 04:02:55;;;;;;;1.20;1.20;;;;;;;-3.19;94.90;99647.28;4992492;28;19913;-77
2023/11/23 04:05:20;;;;;;;1.10;1.10;;;;;;;-3.20;95.26;99641.16;4992079;28;20084;-77
2023/11/23 04:07:49;;;;;;;1.10;1.10;;;;;;;-3.34;95.18;99633.69;4993507;28;20113;-77
2023/11/23 04:10:15;;;;;;;1.15;1.15;;;;;;;-3.34;95.23;99651.94;4992309;28;20036;-78
2023/11/23 04:12:41;;;;;;;1.10;1.10;;;;;;;-3.26;95.62;99647.44;4990961;28;20034;-78
2023/11/23 04:15:07;;;;;;;1.13;1.13;;;;;;;-3.37;95.52;99646.41;4992372;28;20031;-77
2023/11/23 04:17:33;;;;;;;1.10;1.10;;;;;;;-3.15;95.67;99639.91;5008017;28;20059;-78
2023/11/23 04:19:59;;;;;;;1.10;1.10;;;;;;;-2.97;95.69;99640.75;4990055;28;20480;-77
2023/11/23 04:22:24;;;;;;;1.13;1.13;;;;;;;-2.99;95.84;99637.06;4991426;28;20038;-78
2023/11/23 04:24:50;;;;;;;1.20;1.20;;;;;;;-3.08;95.55;99641.41;4996441;28;20068;-78
2023/11/23 04:27:16;;;;;;;1.20;1.20;;;;;;;-2.94;95.19;99640.13;4991810;28;21093;-78
2023/11/23 04:29:41;;;;;;;1.20;1.20;;;;;;;-2.73;95.13;99642.19;4992267;28;20032;-78
2023/11/23 04:32:07;;;;;;;1.10;1.10;;;;;;;-2.76;95.06;99643.56;4993287;28;20048;-78
2023/11/23 04:34:35;;;;;;;1.10;1.10;;;;;;;-2.90;94.67;99632.72;4991601;28;20436;-78
2023/11/23 04:37:01;;;;;;;1.08;1.08;;;;;;;-3.04;94.54;99629.56;4993362;28;20044;-77
2023/11/23 04:39:26;;;;;;;1.20;1.20;;;;;;;-3.14;94.89;99617.34;4990209;28;20037;-77
2023/11/23 04:41:52;;;;;;;1.10;1.10;;;;;;;-3.27;95.01;99617.81;4988968;28;20108;-77
2023/11/23 04:44:18;;;;;;;1.20;1.20;;;;;;;-3.15;95.44;99620.72;4992657;28;20038;-77
2023/11/23 04:46:43;;;;;;;1.10;1.10;;;;;;;-3.29;95.18;99618.47;4990148;28;20034;-78
2023/11/23 04:49:08;;;;;;;1.10;1.10;;;;;;;-3.03;95.25;99619.25;4984978;28;20045;-78
2023/11/23 04:51:34;;;;;;;1.20;1.20;;;;;;;-3.05;94.96;99618.22;4992519;28;20654;-78
2023/11/23 04:53:59;;;;;;;1.10;1.10;;;;;;;-3.31;94.69;99622.59;4994878;28;20062;-78
2023/11/23 04:56:25;;;;;;;1.20;1.20;;;;;;;-3.49;94.76;99626.97;4996939;28;20717;-77
2023/11/23 04:58:50;;;;;;;1.20;1.20;;;;;;;-3.50;95.23;99614.66;4994114;28;20133;-77
2023/11/23 05:01:16;;;;;;;1.10;1.10;;;;;;;-3.51;95.37;99623.28;4979412;28;20970;-77
2023/11/23 05:03:42;;;;;;;1.20;1.20;;;;;;;-3.53;95.32;99617.91;4996509;28;20522;-78
2023/11/23 05:06:08;;;;;;;1.20;1.20;;;;;;;-3.07;95.47;99609.31;4992312;28;20035;-77
2023/11/23 05:08:34;;;;;;;1.10;1.10;;;;;;;-3.37;95.29;99602.97;4992213;28;20060;-77
2023/11/23 05:11:00;;;;;;;1.20;1.20;;;;;;;-3.27;95.19;99601.25;4993763;28;20104;-78
2023/11/23 05:13:26;;;;;;;1.20;1.20;;;;;;;-3.63;95.21;99600.44;4995716;28;20561;-77
2023/11/23 05:15:51;;;;;;;1.10;1.10;;;;;;;-3.72;95.26;99602.16;4997336;28;20113;-78
2023/11/23 05:18:17;;;;;;;1.10;1.10;;;;;;;-3.62;95.32;99598.75;4995086;28;20117;-77
2023/11/23 05:20:42;;;;;;;1.20;1.20;;;;;;;-3.22;95.95;99594.78;4994807;28;20038;-77
2023/11/23 05:23:08;;;;;;;1.20;1.20;;;;;;;-3.57;95.28;99604.44;4996658;28;20053;-78
2023/11/23 05:25:35;;;;;;;1.13;1.13;;;;;;;-3.42;95.49;99604.22;4997164;28;20790;-78
2023/11/23 05:28:01;;;;;;;1.20;1.20;;;;;;;-3.34;95.14;99606.66;4994053;28;20069;-78
2023/11/23 05:30:27;;;;;;;1.17;1.17;;;;;;;-3.47;95.19;99601.94;4995985;28;20625;-78
2023/11/23 05:33:01;;;;;;;1.20;1.20;;;;;;;-3.47;95.56;99605.47;4999403;28;20030;-79
2023/11/23 05:35:31;;;;;;;1.10;1.10;;;;;;;-3.62;95.79;99606.59;4994649;28;20030;-79
2023/11/23 05:37:57;;;;;;;1.15;1.15;;;;;;;-3.32;95.70;99618.16;4994287;28;20037;-79
2023/11/23 05:40:23;;;;;;;1.10;1.10;;;;;;;-3.45;95.14;99624.81;4993980;28;20044;-79
2023/11/23 05:42:50;;;;;;;1.20;1.20;;;;;;;-3.58;95.32;99628.69;4994184;28;20030;-79
2023/11/23 05:45:16;;;;;;;;;;;;;;;-3.61;95.79;99635.41;4992058;28;20060;-79
2023/11/23 05:47:41;;;;;;;1.20;1.20;;;;;;;-3.64;95.34;99629.91;4996950;28;21943;-80
2023/11/23 05:50:10;;;;;;;1.20;1.20;;;;;;;-3.83;95.48;99644.50;4992994;28;20041;-78
2023/11/23 05:52:36;;;;;;;1.10;1.10;;;;;;;-3.68;95.87;99640.81;4992854;28;20588;-79
2023/11/23 05:55:01;;;;;;;1.08;1.08;;;;;;;-3.64;95.88;99645.56;4996384;28;20034;-79
2023/11/23 05:57:26;;;;;;;1.10;1.10;;;;;;;-3.89;96.21;99652.63;4995199;28;20038;-79
2023/11/23 05:59:52;;;;;;;1.20;1.20;;;;;;;-3.87;95.86;99650.19;4995401;28;20058;-79
2023/11/23 06:02:18;;;;;;;1.20;1.20;;;;;;;-4.24;95.88;99642.97;4993391;28;20026;-79
2023/11/23 06:04:47;;;;;;;1.20;1.20;;;;;;;-3.77;96.28;99632.06;4987580;28;20041;-79
2023/11/23 06:07:14;;;;;;;1.10;1.10;;;;;;;-3.96;96.48;99649.25;4990985;28;20025;-79
2023/11/23 06:09:42;;;;;;;1.30;1.30;;;;;;;-3.72;96.48;99640.34;4993814;28;20084;-79
2023/11/23 06:12:08;;;;;;;;;;;;;;;-3.89;96.38;99651.69;4974987;28;20046;-79
2023/11/23 06:14:36;;;;;;;1.30;1.30;;;;;;;-3.91;96.60;99648.03;4990889;28;20032;-78
2023/11/23 06:17:03;;;;;;;1.20;1.20;;;;;;;-3.57;96.26;99641.84;4994308;28;20021;-78
2023/11/23 06:19:29;;;;;;;1.10;1.10;;;;;;;-3.48;96.10;99647.06;4995523;28;20061;-80
2023/11/23 06:21:55;;;;;;;1.20;1.20;;;;;;;-3.19;96.39;99637.75;4992066;28;20044;-79
2023/11/23 06:24:22;;;;;;;1.20;1.20;;;;;;;-2.69;96.25;99643.38;4993591;28;20034;-79
2023/11/23 06:26:48;;;;;;;1.10;1.10;;;;;;;-2.58;95.84;99632.28;4989782;28;20519;-79
2023/11/23 06:29:13;;;;;;;1.10;1.10;;;;;;;-2.42;95.16;99635.53;4976230;28;20030;-79
2023/11/23 06:31:39;;;;;;;1.20;1.20;;;;;;;-2.41;94.78;99637.38;4991431;28;20095;-79
2023/11/23 06:34:04;;;;;;;1.10;1.10;;;;;;;-2.41;94.85;99639.06;4990587;28;20435;-79
2023/11/23 06:36:30;;;;;;;1.20;1.20;;;;;;;-2.45;94.94;99640.47;4992702;28;20021;-79
2023/11/23 06:38:55;;;;;;;1.20;1.20;;;;;;;-2.53;94.71;99645.75;4992516;28;20076;-80
2023/11/23 06:41:22;;;;;;;1.00;1.00;;;;;;;-2.64;94.60;99643.03;4990637;28;20042;-79
2023/11/23 06:43:49;;;;;;;1.10;1.10;;;;;;;-2.79;94.47;99630.22;5006484;28;20070;-79
2023/11/23 06:46:16;;;;;;;1.15;1.15;;;;;;;-2.77;94.46;99634.81;4991924;28;20312;-79
2023/11/23 06:48:44;;;;;;;1.20;1.20;;;;;;;-2.58;94.74;99629.66;4994535;28;20038;-78
2023/11/23 06:51:09;;;;;;;1.10;1.10;;;;;;;-2.56;94.73;99624.56;4992667;28;20029;-77
2023/11/23 06:53:43;;;;;;;1.20;1.20;;;;;;;-2.75;94.60;99624.50;4997215;28;20510;-78
2023/11/23 06:56:09;;;;;;;1.20;1.20;;;;;;;-2.79;94.56;99618.06;4993507;28;20111;-78
2023/11/23 06:58:35;;;;;;;1.20;1.20;;;;;;;-3.00;94.35;99616.97;4991376;28;20033;-78
2023/11/23 07:01:02;;;;;;;1.10;1.10;;;;;;;-3.07;94.24;99619.75;4979527;28;20065;-78
2023/11/23 07:03:27;;;;;;;1.20;1.20;;;;;;;-2.91;94.58;99620.47;4991545;28;20414;-78
2023/11/23 07:05:53;;;;;;;1.20;1.20;;;;;;;-2.93;94.15;99616.75;4992681;28;20129;-78
2023/11/23 07:08:18;;;;;;;1.15;1.15;;;;;;;-2.54;94.53;99608.25;4991832;28;20459;-78
2023/11/23 07:10:44;;;;;;;1.10;1.10;;;;;;;-2.45;93.86;99601.25;4995279;28;20735;-80
2023/11/23 07:13:10;;;;;;;1.10;1.10;;;;;;;-2.30;93.87;99613.91;4991455;28;20073;-79
2023/11/23 07:15:35;;;;;;;1.20;1.20;;;;;;;-2.37;94.34;99609.84;4990526;28;20032;-79
2023/11/23 07:18:00;;;;;;;1.10;1.10;;;;;;;-2.48;93.35;99610.53;4991493;28;20029;-79
2023/11/23 07:20:26;;;;;;;1.10;1.10;;;;;;;-2.62;93.71;99604.00;4977133;28;20053;-78
2023/11/23 07:23:00;;;;;;;1.10;1.10;;;;;;;-2.67;93.47;99608.81;4980496;28;20029;-79
2023/11/23 07:25:26;;;;;;;1.10;1.10;;;;;;;-2.81;93.59;99613.50;4982274;28;20472;-79
2023/11/23 07:27:51;;;;;;;1.10;1.10;;;;;;;-2.94;93.52;99620.16;4991728;28;20034;-79
2023/11/23 07:30:17;;;;;;;1.20;1.20;;;;;;;-2.76;93.81;99626.22;4994591;28;20599;-79
2023/11/23 07:32:42;;;;;;;1.10;1.10;;;;;;;-2.45;93.29;99621.25;4990711;28;20051;-79
2023/11/23 07:35:08;;;;;;;1.10;1.10;;;;;;;-2.38;93.13;99616.75;4990424;28;20847;-79
2023/11/23 07:37:33;;;;;;;1.10;1.10;;;;;;;-2.25;93.07;99616.22;4990518;28;20553;-79
2023/11/23 07:39:59;;;;;;;1.20;1.20;;;;;;;-2.18;92.74;99616.00;4993184;28;20034;-79
2023/11/23 07:42:28;;;;;;;1.10;1.10;;;;;;;-1.76;92.47;99612.88;4992433;28;20046;-78
2023/11/23 07:44:54;;;;;;;1.20;1.20;;;;;;;-1.37;91.43;99620.78;4992425;28;20041;-77
2023/11/23 07:47:19;;;;;;;1.10;1.10;;;;;;;-0.88;91.13;99617.25;4986010;28;20033;-78
2023/11/23 07:49:45;;;;;;;1.08;1.08;;;;;;;-0.55;91.08;99616.66;4993241;28;20361;-78
2023/11/23 07:52:13;;;;;;;1.10;1.10;;;;;;;-0.37;90.91;99612.09;4990822;28;20505;-78
2023/11/23 07:54:38;;;;;;;1.05;1.05;;;;;;;-0.33;89.32;99613.28;4991046;28;20026;-78
2023/11/23 07:57:04;;;;;;;1.10;1.10;;;;;;;-0.37;90.09;99611.16;4994609;28;20038;-78
2023/11/23 07:59:29;;;;;;;1.00;1.00;;;;;;;-0.34;90.25;99612.31;4992445;28;20058;-79
2023/11/23 08:01:56;;;;;;;1.10;1.10;;;;;;;-0.40;90.48;99603.94;4992086;28;20507;-79
2023/11/23 08:04:22;;;;;;;1.10;1.10;;;;;;;-0.47;90.67;99614.72;4991099;28;20487;-79
2023/11/23 08:06:47;;;;;;;1.10;1.10;;;;;;;-0.23;90.17;99594.00;4993756;28;20029;-79
2023/11/23 08:09:16;;;;;;;1.17;1.17;;;;;;;0.35;88.89;99593.63;4992652;28;20181;-78
2023/11/23 08:11:41;;;;;;;1.10;1.10;;;;;;;0.58;87.51;99593.81;4984121;28;20034;-77
2023/11/23 08:14:07;;;;;;;1.10;1.10;;;;;;;0.13;87.79;99604.03;4991611;28;20047;-77
2023/11/23 08:16:32;;;;;;;0.98;0.98;;;;;;;0.15;88.53;99598.13;4971544;28;20121;-78
2023/11/23 08:18:58;;;;;;;1.00;1.00;;;;;;;0.00;88.35;99596.84;4995118;28;20038;-79
2023/11/23 08:21:23;;;;;;;1.10;1.10;;;;;;;0.01;88.36;99609.19;4988582;28;20056;-79
2023/11/23 08:23:49;;;;;;;1.10;1.10;;;;;;;0.20;88.25;99614.25;4989785;28;20038;-79
2023/11/23 08:26:15;;;;;;;1.20;1.20;;;;;;;1.39;85.88;99602.94;4986232;28;20143;-79
2023/11/23 08:28:41;;;;;;;1.10;1.10;;;;;;;1.66;85.17;99598.00;4990640;28;20087;-78
2023/11/23 08:31:07;;;;;;;1.10;1.10;;;;;;;2.11;85.08;99587.47;4993478;28;20042;-78
2023/11/23 08:33:32;;;;;;;1.00;1.00;;;;;;;2.83;82.81;99598.09;4992609;28;20069;-79
2023/11/23 08:35:58;;;;;;;1.00;1.00;;;;;;;2.92;81.92;99589.91;4995539;28;20048;-79
2023/11/23 08:38:23;;;;;;;1.10;1.10;;;;;;;3.61;83.17;99590.50;4995549;28;20026;-79
2023/11/23 08:40:49;;;;;;;0.90;0.90;;;;;;;3.79;80.58;99583.88;4994629;28;20032;-79
2023/11/23 08:43:14;;;;;;;0.85;0.85;;;;;;;3.27;83.46;99587.19;4994942;28;20415;-79
2023/11/23 08:45:40;;;;;;;0.88;0.88;;;;;;;3.10;84.76;99591.25;4997179;28;20045;-78
2023/11/23 08:48:05;;;;;;;0.90;0.90;;;;;;;3.02;84.21;99596.00;4996043;28;20479;-77
2023/11/23 08:50:31;;;;;;;0.90;0.90;;;;;;;2.45;82.23;99590.00;4993635;28;20128;-77
2023/11/23 08:52:59;;;;;;;0.90;0.90;;;;;;;2.62;83.69;99572.78;4996236;28;20046;-77
2023/11/23 08:55:28;;;;;;;0.90;0.90;;;;;;;2.56;84.34;99576.81;4993887;28;20040;-77
2023/11/23 08:57:53;;;;;;;0.90;0.90;;;;;;;2.62;85.66;99571.06;4996165;28;20060;-77
2023/11/23 09:00:24;;;;;;;0.90;0.90;;;;;;;2.38;84.75;99564.91;4994368;28;20042;-78
2023/11/23 09:02:50;;;;;;;0.88;0.88;;;;;;;2.44;83.76;99572.34;4997228;28;20480;-77
2023/11/23 09:05:16;;;;;;;0.80;0.80;;;;;;;2.65;84.83;99565.13;4994580;28;20052;-77
2023/11/23 09:07:42;;;;;;;0.90;0.90;;;;;;;2.67;84.29;99561.78;4995821;28;20026;-77
2023/11/23 09:10:12;;;;;;;0.80;0.80;;;;;;;2.60;80.92;99564.78;4992005;28;20356;-77
2023/11/23 09:12:38;;;;;;;0.90;0.90;;;;;;;2.60;82.31;99566.50;4990233;28;20033;-76
2023/11/23 09:15:07;;;;;;;0.93;0.93;;;;;;;2.70;82.94;99561.09;4993905;28;20092;-76
2023/11/23 09:17:33;;;;;;;0.90;0.90;;;;;;;2.96;83.79;99563.91;4994955;28;20403;-76
2023/11/23 09:19:59;;;;;;;0.80;0.80;;;;;;;2.72;78.89;99554.22;4975361;28;20034;-77
2023/11/23 09:22:27;;;;;;;1.08;1.08;;;;;;;2.90;81.81;99563.47;4994292;28;20049;-77
2023/11/23 09:24:53;;;;;;;0.90;0.90;;;;;;;3.13;82.15;99553.66;4994790;28;20038;-76
2023/11/23 09:27:18;;;;;;;1.00;1.00;;;;;;;3.26;82.51;99553.72;4993540;28;20022;-78
2023/11/23 09:29:48;;;;;;;0.90;0.90;;;;;;;3.33;80.78;99548.97;4979488;28;20085;-76
2023/11/23 09:32:14;;;;;;;0.95;0.95;;;;;;;3.05;76.96;99547.81;4992227;28;20057;-78
2023/11/23 09:34:40;;;;;;;1.00;1.00;;;;;;;2.80;76.29;99535.53;4992040;28;20064;-77
2023/11/23 09:37:06;;;;;;;0.90;0.90;;;;;;;2.87;76.58;99526.34;4993019;28;20116;-77
2023/11/23 09:39:34;;;;;;;0.90;0.90;;;;;;;3.09;76.94;99532.34;4992328;28;20030;-77
2023/11/23 09:42:03;;;;;;;0.90;0.90;;;;;;;3.52;77.18;99515.97;4991688;28;20140;-79
2023/11/23 09:44:29;;;;;;;1.00;1.00;;;;;;;3.22;76.72;99514.75;4991763;28;20022;-77
2023/11/23 09:46:56;;;;;;;0.90;0.90;;;;;;;3.62;78.74;99513.16;4994438;28;20041;-78
2023/11/23 09:49:22;;;;;;;1.05;1.05;;;;;;;3.82;77.14;99501.31;4995305;28;20096;-80
2023/11/23 09:51:55;;;;;;;0.80;0.80;;;;;;;4.04;77.17;99501.97;4993894;28;20038;-79
2023/11/23 09:54:28;;;;;;;0.90;0.90;;;;;;;4.19;75.39;99494.16;4994992;28;20483;-78
2023/11/23 09:56:54;;;;;;;0.90;0.90;;;;;;;3.71;72.91;99491.78;4996474;28;20030;-77
2023/11/23 09:59:19;;;;;;;0.90;0.90;;;;;;;3.33;74.34;99490.97;4990877;28;20042;-78
2023/11/23 10:01:47;;;;;;;0.85;0.85;;;;;;;3.59;75.39;99491.81;4999851;28;20652;-79
2023/11/23 10:04:13;;;;;;;1.00;1.00;;;;;;;3.66;76.06;99488.81;4994672;28;20084;-79
2023/11/23 10:06:42;;;;;;;0.90;0.90;;;;;;;4.13;75.28;99477.91;4993960;28;20460;-79
2023/11/23 10:09:09;;;;;;;0.95;0.95;;;;;;;3.57;73.88;99468.00;4993972;28;20057;-78
2023/11/23 10:11:36;;;;;;;1.00;1.00;;;;;;;3.86;75.61;99464.69;4994851;28;20035;-80
2023/11/23 10:14:04;;;;;;;1.00;1.00;;;;;;;4.14;74.37;99463.88;4994592;28;20041;-81
2023/11/23 10:16:33;;;;;;;0.90;0.90;;;;;;;3.93;74.27;99452.81;4975741;28;20141;-78
2023/11/23 10:18:58;;;;;;;0.80;0.80;;;;;;;3.74;74.83;99466.50;4995144;28;20427;-79
2023/11/23 10:21:24;;;;;;;0.90;0.90;;;;;;;3.70;74.35;99448.63;4994906;28;20046;-79
2023/11/23 10:23:49;;;;;;;0.90;0.90;;;;;;;3.98;74.41;99448.75;4987493;28;20073;-78
2023/11/23 10:26:16;;;;;;;0.93;0.93;;;;;;;4.21;74.31;99437.03;4992408;28;20042;-78
2023/11/23 10:28:42;;;;;;;0.95;0.95;;;;;;;4.30;73.36;99437.66;4988091;28;20123;-78
2023/11/23 10:31:08;;;;;;;0.90;0.90;;;;;;;4.33;73.11;99432.56;4986103;28;20030;-78
2023/11/23 10:33:37;;;;;;;0.90;0.90;;;;;;;4.19;73.99;99436.03;4989970;28;20026;-77
2023/11/23 10:36:04;;;;;;;0.90;0.90;;;;;;;4.06;73.87;99434.31;4989532;28;20025;-77
2023/11/23 10:38:38;;;;;;;0.90;0.90;;;;;;;4.34;73.58;99429.09;4984497;28;20033;-78
2023/11/23 10:41:06;;;;;;;0.80;0.80;;;;;;;4.14;73.73;99431.28;4990617;28;20038;-77
2023/11/23 10:43:36;;;;;;;0.80;0.80;;;;;;;3.73;75.37;99433.00;4974472;28;20880;-79
2023/11/23 10:46:14;;;;;;;0.90;0.90;;;;;;;4.22;74.93;99430.06;4981442;28;20548;-79
2023/11/23 10:48:41;;;;;;;0.70;0.70;;;;;;;4.24;74.62;99423.13;4992706;28;20025;-79
2023/11/23 10:51:07;;;;;;;0.90;0.90;;;;;;;4.09;75.20;99430.97;4983293;28;20026;-78
2023/11/23 10:53:48;;;;;;;0.90;0.90;;;;;;;4.01;76.32;99426.91;4988137;28;20128;-78
2023/11/23 10:56:19;;;;;;;0.90;0.90;;;;;;;3.83;75.21;99427.53;4990493;28;20113;-78
2023/11/23 10:58:49;;;;;;;0.90;0.90;;;;;;;3.73;76.14;99417.16;4986469;28;20096;-77
2023/11/23 11:01:21;;;;;;;0.90;0.90;;;;;;;4.08;75.34;99410.69;4992233;28;20069;-77
2023/11/23 11:03:48;;;;;;;0.90;0.90;;;;;;;4.25;75.69;99404.75;4974516;28;20091;-77
2023/11/23 11:06:16;;;;;;;0.88;0.88;;;;;;;4.51;75.32;99402.88;4985744;28;20830;-79
2023/11/23 11:08:47;;;;;;;0.88;0.88;;;;;;;4.41;74.65;99395.16;4992553;28;20038;-78
2023/11/23 11:11:26;;;;;;;0.90;0.90;;;;;;;4.36;75.34;99387.88;4989132;28;20140;-79
2023/11/23 11:14:02;;;;;;;0.90;0.90;;;;;;;4.56;74.39;99388.22;4986916;28;20034;-78
2023/11/23 11:16:34;;;;;;;0.80;0.80;;;;;;;4.32;74.33;99384.94;4989159;28;20270;-80
2023/11/23 11:19:06;;;;;;;0.90;0.90;;;;;;;4.21;75.57;99386.88;4987218;28;20108;-80
2023/11/23 11:21:41;;;;;;;0.80;0.80;;;;;;;4.50;75.36;99379.88;4993256;28;20096;-79
2023/11/23 11:24:19;;;;;;;0.90;0.90;;;;;;;4.70;75.22;99375.88;4975153;28;20065;-79
2023/11/23 11:26:46;;;;;;;0.90;0.90;;;;;;;4.84;74.82;99378.56;4982438;28;20038;-78
2023/11/23 11:29:12;;;;;;;0.90;0.90;;;;;;;4.59;74.33;99378.72;4977725;28;20037;-78
2023/11/23 11:31:42;;;;;;;0.90;0.90;;;;;;;4.67;74.40;99373.94;4987618;28;20076;-79
2023/11/23 11:34:12;;;;;;;0.80;0.80;;;;;;;4.41;75.70;99392.50;4989529;28;20462;-80